Time;durP1;ratioP1;P1;durP2;ratioP2;P2;SDS_P1;SDS_P2;PMS_P1;PMS_P2;Temp;Humidity;BMP_temperature;BMP_pressure;BME280_temperature;BME280_humidity;BME280_pressure;Samples;Min_cycle;Max_cycle;Signal;HPM_P1;HPM_P2
2023/09/18 00:02:06;;;;;;;52.67;11.15;;;;;;;;;;4883011;29;20040;-71
2023/09/18 00:04:33;;;;;;;59.03;10.90;;;;;;;;;;4882358;29;20110;-71
2023/09/18 00:07:00;;;;;;;56.10;11.50;;;;;;;;;;4905049;29;20479;-71
2023/09/18 00:09:26;;;;;;;59.22;11.27;;;;;;;;;;4905826;29;20040;-72
2023/09/18 00:11:52;;;;;;;64.10;11.40;;;;;;;;;;4909375;29;20032;-72
2023/09/18 00:14:18;;;;;;;52.35;10.82;;;;;;;;;;4906966;29;20045;-72
2023/09/18 00:16:44;;;;;;;58.40;11.05;;;;;;;;;;4905988;29;20040;-72
2023/09/18 00:19:11;;;;;;;64.15;11.40;;;;;;;;;;4905365;29;20444;-72
2023/09/18 00:21:37;;;;;;;52.67;10.65;;;;;;;;;;4906204;29;20328;-71
2023/09/18 00:24:04;;;;;;;63.92;11.02;;;;;;;;;;4908756;29;20499;-71
2023/09/18 00:26:30;;;;;;;57.20;10.18;;;;;;;;;;4906165;29;20516;-71
2023/09/18 00:28:56;;;;;;;60.55;10.95;;;;;;;;;;4908990;29;20103;-73
2023/09/18 00:31:22;;;;;;;55.60;10.50;;;;;;;;;;4909036;29;20032;-71
2023/09/18 00:33:48;;;;;;;59.90;10.95;;;;;;;;;;4907113;29;20051;-72
2023/09/18 00:36:15;;;;;;;63.15;11.50;;;;;;;;;;4903310;29;20593;-71
2023/09/18 00:38:41;;;;;;;63.05;10.70;;;;;;;;;;4884724;29;20069;-71
2023/09/18 00:41:07;;;;;;;60.17;10.73;;;;;;;;;;4873269;29;20386;-71
2023/09/18 00:43:34;;;;;;;58.42;10.55;;;;;;;;;;4868565;28;20130;-72
2023/09/18 00:46:01;;;;;;;61.90;10.90;;;;;;;;;;4874781;29;20605;-71
2023/09/18 00:48:28;;;;;;;62.53;10.95;;;;;;;;;;4871172;29;20040;-70
2023/09/18 00:50:54;;;;;;;51.80;10.65;;;;;;;;;;4869696;29;20545;-70
2023/09/18 00:53:22;;;;;;;60.78;10.38;;;;;;;;;;4871152;29;21674;-71
2023/09/18 00:55:49;;;;;;;57.15;10.80;;;;;;;;;;4870824;29;20042;-71
2023/09/18 00:58:16;;;;;;;60.97;10.43;;;;;;;;;;4867579;29;20118;-71
2023/09/18 01:00:42;;;;;;;56.35;11.00;;;;;;;;;;4868757;29;20035;-71
2023/09/18 01:03:09;;;;;;;47.25;9.95;;;;;;;;;;4870983;29;20751;-71
2023/09/18 01:05:35;;;;;;;48.55;9.68;;;;;;;;;;4869135;29;20040;-71
2023/09/18 01:08:02;;;;;;;65.13;10.43;;;;;;;;;;4870767;29;20782;-71
2023/09/18 01:10:34;;;;;;;48.50;9.45;;;;;;;;;;4867074;29;20373;-71
2023/09/18 01:13:05;;;;;;;47.88;9.05;;;;;;;;;;4869706;29;20606;-72
2023/09/18 01:15:35;;;;;;;53.75;9.68;;;;;;;;;;4879758;29;20300;-72
2023/09/18 01:18:03;;;;;;;40.03;8.55;;;;;;;;;;4904022;29;20039;-70
2023/09/18 01:20:29;;;;;;;44.10;9.18;;;;;;;;;;4905872;29;20042;-71
2023/09/18 01:22:55;;;;;;;45.13;8.35;;;;;;;;;;4907387;29;20091;-72
2023/09/18 01:25:21;;;;;;;42.85;8.98;;;;;;;;;;4905143;29;20122;-72
2023/09/18 01:27:47;;;;;;;41.85;8.18;;;;;;;;;;4909519;29;20589;-71
2023/09/18 01:30:15;;;;;;;42.58;8.98;;;;;;;;;;4911388;29;20386;-71
2023/09/18 01:32:42;;;;;;;52.00;9.07;;;;;;;;;;4904022;29;20056;-71
2023/09/18 01:35:09;;;;;;;45.70;8.48;;;;;;;;;;4912599;29;20701;-71
2023/09/18 01:37:36;;;;;;;51.20;9.80;;;;;;;;;;4902417;29;20459;-71
2023/09/18 01:40:06;;;;;;;47.53;9.40;;;;;;;;;;4903544;29;20254;-71
2023/09/18 01:42:32;;;;;;;45.05;8.73;;;;;;;;;;4909615;29;20031;-73
2023/09/18 01:44:59;;;;;;;40.17;8.27;;;;;;;;;;4907789;29;20061;-73
2023/09/18 01:47:26;;;;;;;47.40;9.35;;;;;;;;;;4899270;29;20408;-72
2023/09/18 01:49:52;;;;;;;44.42;8.65;;;;;;;;;;4904313;29;20024;-73
2023/09/18 01:52:19;;;;;;;49.58;9.02;;;;;;;;;;4906723;29;20341;-73
2023/09/18 01:54:47;;;;;;;44.58;8.60;;;;;;;;;;4906586;29;20074;-71
2023/09/18 01:57:13;;;;;;;47.15;9.52;;;;;;;;;;4901678;29;20047;-71
2023/09/18 01:59:41;;;;;;;40.85;8.70;;;;;;;;;;4906029;29;20309;-71
2023/09/18 02:02:09;;;;;;;45.42;8.70;;;;;;;;;;4902236;29;20235;-71
2023/09/18 02:04:35;;;;;;;48.70;8.70;;;;;;;;;;4907579;29;20028;-71
2023/09/18 02:07:02;;;;;;;50.38;9.35;;;;;;;;;;4912797;29;20032;-71
2023/09/18 02:09:28;;;;;;;43.25;8.38;;;;;;;;;;4905636;29;20055;-71
2023/09/18 02:11:54;;;;;;;41.28;8.38;;;;;;;;;;4912545;29;20456;-71
2023/09/18 02:14:20;;;;;;;36.67;7.80;;;;;;;;;;4906850;29;20367;-74
2023/09/18 02:16:46;;;;;;;39.35;7.95;;;;;;;;;;4910276;29;20728;-71
2023/09/18 02:19:17;;;;;;;42.75;8.68;;;;;;;;;;4908309;29;20357;-71
2023/09/18 02:21:43;;;;;;;44.63;8.15;;;;;;;;;;4901105;29;20576;-72
2023/09/18 02:24:09;;;;;;;56.22;10.07;;;;;;;;;;4908935;29;20727;-73
2023/09/18 02:26:36;;;;;;;46.03;9.48;;;;;;;;;;4906523;29;20460;-71
2023/09/18 02:29:04;;;;;;;40.70;8.75;;;;;;;;;;4908554;29;20453;-71
2023/09/18 02:31:30;;;;;;;55.85;9.30;;;;;;;;;;4908080;29;20115;-71
2023/09/18 02:33:56;;;;;;;48.28;9.23;;;;;;;;;;4906383;29;20058;-71
2023/09/18 02:36:22;;;;;;;60.92;10.60;;;;;;;;;;4906844;29;20044;-71
2023/09/18 02:38:49;;;;;;;46.63;9.30;;;;;;;;;;4908631;29;20038;-71
2023/09/18 02:41:15;;;;;;;55.92;10.73;;;;;;;;;;4910310;29;20036;-71
2023/09/18 02:43:41;;;;;;;49.45;9.75;;;;;;;;;;4903539;29;20094;-72
2023/09/18 02:46:07;;;;;;;62.45;10.13;;;;;;;;;;4911296;29;20555;-71
2023/09/18 02:48:33;;;;;;;55.17;10.95;;;;;;;;;;4907108;29;20355;-71
2023/09/18 02:51:00;;;;;;;45.63;9.27;;;;;;;;;;4910905;29;20046;-72
2023/09/18 02:53:26;;;;;;;67.85;11.07;;;;;;;;;;4904446;29;20146;-71
2023/09/18 02:55:53;;;;;;;58.25;10.43;;;;;;;;;;4908154;29;20544;-73
2023/09/18 02:58:20;;;;;;;53.00;10.00;;;;;;;;;;4910486;29;20218;-72
2023/09/18 03:00:47;;;;;;;55.70;10.30;;;;;;;;;;4910666;29;20134;-74
2023/09/18 03:03:13;;;;;;;45.85;9.20;;;;;;;;;;4913292;29;20024;-72
2023/09/18 03:05:40;;;;;;;56.80;10.65;;;;;;;;;;4902581;29;20095;-72
2023/09/18 03:08:06;;;;;;;57.42;10.38;;;;;;;;;;4906149;29;20040;-71
2023/09/18 03:10:40;;;;;;;57.47;11.20;;;;;;;;;;4904742;29;20364;-71
2023/09/18 03:13:06;;;;;;;52.30;10.93;;;;;;;;;;4907264;29;20027;-72
2023/09/18 03:15:32;;;;;;;57.30;11.57;;;;;;;;;;4906534;29;20488;-72
2023/09/18 03:18:00;;;;;;;57.15;11.05;;;;;;;;;;4908400;29;20028;-72
2023/09/18 03:20:27;;;;;;;54.42;10.43;;;;;;;;;;4903699;29;20131;-72
2023/09/18 03:22:54;;;;;;;54.92;11.35;;;;;;;;;;4906303;29;20031;-72
2023/09/18 03:25:21;;;;;;;55.67;11.20;;;;;;;;;;4908770;29;20043;-73
2023/09/18 03:27:47;;;;;;;58.28;11.93;;;;;;;;;;4909614;29;20090;-73
2023/09/18 03:30:16;;;;;;;57.70;10.35;;;;;;;;;;4909250;29;20036;-71
2023/09/18 03:32:43;;;;;;;60.15;11.80;;;;;;;;;;4904360;29;20023;-72
2023/09/18 03:35:18;;;;;;;60.83;11.70;;;;;;;;;;4906711;29;20385;-72
2023/09/18 03:37:44;;;;;;;50.20;10.75;;;;;;;;;;4906230;29;20349;-73
2023/09/18 03:40:10;;;;;;;56.47;12.25;;;;;;;;;;4903625;29;20063;-72
2023/09/18 03:42:36;;;;;;;56.20;12.07;;;;;;;;;;4908383;29;20038;-71
2023/09/18 03:45:05;;;;;;;59.92;12.55;;;;;;;;;;4907617;29;20039;-71
2023/09/18 03:47:31;;;;;;;55.67;11.65;;;;;;;;;;4905397;29;20573;-74
2023/09/18 03:49:58;;;;;;;55.38;11.40;;;;;;;;;;4903527;29;20058;-71
2023/09/18 03:52:24;;;;;;;48.63;10.80;;;;;;;;;;4908729;29;20031;-71
2023/09/18 03:54:51;;;;;;;63.28;12.30;;;;;;;;;;4903954;29;20170;-71
2023/09/18 03:57:17;;;;;;;50.40;11.98;;;;;;;;;;4910047;29;20045;-71
2023/09/18 03:59:43;;;;;;;60.95;12.23;;;;;;;;;;4907320;29;20460;-72
2023/09/18 04:02:09;;;;;;;52.03;11.52;;;;;;;;;;4906079;29;20569;-72
2023/09/18 04:04:35;;;;;;;53.38;11.27;;;;;;;;;;4905060;29;20230;-71
2023/09/18 04:07:06;;;;;;;63.00;12.35;;;;;;;;;;4905896;29;20032;-72
2023/09/18 04:09:32;;;;;;;54.83;13.05;;;;;;;;;;4904314;29;20032;-71
2023/09/18 04:11:58;;;;;;;55.90;11.80;;;;;;;;;;4908816;29;20843;-71
2023/09/18 04:14:24;;;;;;;51.08;9.90;;;;;;;;;;4909016;29;20115;-71
2023/09/18 04:16:51;;;;;;;51.05;11.65;;;;;;;;;;4909124;29;20027;-71
2023/09/18 04:19:17;;;;;;;53.10;11.18;;;;;;;;;;4907542;29;20071;-71
2023/09/18 04:21:43;;;;;;;50.10;10.15;;;;;;;;;;4903182;29;20249;-71
2023/09/18 04:24:09;;;;;;;61.33;11.63;;;;;;;;;;4901905;29;20040;-71
2023/09/18 04:26:37;;;;;;;63.40;10.90;;;;;;;;;;4901609;29;20036;-71
2023/09/18 04:29:04;;;;;;;54.45;11.00;;;;;;;;;;4901046;29;20092;-71
2023/09/18 04:31:30;;;;;;;49.60;11.00;;;;;;;;;;4906086;29;20044;-71
2023/09/18 04:33:57;;;;;;;57.65;11.38;;;;;;;;;;4908618;29;20493;-72
2023/09/18 04:36:23;;;;;;;53.80;10.90;;;;;;;;;;4907942;28;20493;-71
2023/09/18 04:38:50;;;;;;;51.40;11.05;;;;;;;;;;4903623;29;20031;-71
2023/09/18 04:41:16;;;;;;;55.25;10.68;;;;;;;;;;4906256;29;20044;-70
2023/09/18 04:43:45;;;;;;;60.08;11.73;;;;;;;;;;4909581;29;20035;-70
2023/09/18 04:46:11;;;;;;;50.22;11.27;;;;;;;;;;4905405;29;20062;-70
2023/09/18 04:48:37;;;;;;;52.08;10.15;;;;;;;;;;4904930;29;20028;-70
2023/09/18 04:51:03;;;;;;;52.53;10.88;;;;;;;;;;4907966;29;20478;-70
2023/09/18 04:53:30;;;;;;;50.53;10.23;;;;;;;;;;4903584;29;20722;-70
2023/09/18 04:55:56;;;;;;;43.03;9.43;;;;;;;;;;4905608;29;20032;-70
2023/09/18 04:58:22;;;;;;;52.25;10.55;;;;;;;;;;4904893;29;20292;-71
2023/09/18 05:00:58;;;;;;;47.05;10.65;;;;;;;;;;4901423;29;20333;-70
2023/09/18 05:03:25;;;;;;;50.20;10.02;;;;;;;;;;4905612;29;20039;-71
2023/09/18 05:05:51;;;;;;;50.40;10.80;;;;;;;;;;4909426;29;20877;-73
2023/09/18 05:08:17;;;;;;;47.33;10.38;;;;;;;;;;4902133;29;20142;-70
2023/09/18 05:10:43;;;;;;;50.05;11.52;;;;;;;;;;4902145;29;20119;-71
2023/09/18 05:13:10;;;;;;;53.05;11.07;;;;;;;;;;4906382;29;20043;-72
2023/09/18 05:15:37;;;;;;;40.95;9.52;;;;;;;;;;4899361;29;20123;-71
2023/09/18 05:18:03;;;;;;;52.53;10.52;;;;;;;;;;4906163;29;20027;-74
2023/09/18 05:20:30;;;;;;;52.95;9.48;;;;;;;;;;4904062;29;20059;-70
2023/09/18 05:22:57;;;;;;;41.08;8.65;;;;;;;;;;4904744;29;20172;-71
2023/09/18 05:25:28;;;;;;;37.30;7.85;;;;;;;;;;4903526;29;20038;-71
2023/09/18 05:27:56;;;;;;;34.42;6.47;;;;;;;;;;4906629;29;20028;-70
2023/09/18 05:30:27;;;;;;;32.45;6.65;;;;;;;;;;4905782;29;20420;-69
2023/09/18 05:32:54;;;;;;;32.65;6.75;;;;;;;;;;4905073;29;22020;-69
2023/09/18 05:35:21;;;;;;;26.65;6.10;;;;;;;;;;4904662;29;20505;-69
2023/09/18 05:37:47;;;;;;;32.33;6.68;;;;;;;;;;4905473;29;20110;-70
2023/09/18 05:40:14;;;;;;;31.40;6.75;;;;;;;;;;4908658;29;21175;-69
2023/09/18 05:42:44;;;;;;;22.90;5.63;;;;;;;;;;4900513;29;20036;-70
2023/09/18 05:45:14;;;;;;;26.27;6.43;;;;;;;;;;4908592;29;20049;-70
2023/09/18 05:47:42;;;;;;;22.05;5.65;;;;;;;;;;4905215;29;20032;-70
2023/09/18 05:50:16;;;;;;;24.65;6.05;;;;;;;;;;4904411;29;20457;-69
2023/09/18 05:52:42;;;;;;;26.17;6.22;;;;;;;;;;4903036;29;20324;-70
2023/09/18 05:55:09;;;;;;;30.00;6.82;;;;;;;;;;4905357;29;20262;-70
2023/09/18 05:57:35;;;;;;;30.25;6.72;;;;;;;;;;4895607;29;20067;-70
2023/09/18 06:00:02;;;;;;;29.33;7.25;;;;;;;;;;4906236;29;20047;-70
2023/09/18 06:02:28;;;;;;;31.60;7.50;;;;;;;;;;4901413;29;20292;-71
2023/09/18 06:04:59;;;;;;;25.98;6.35;;;;;;;;;;4907141;29;20028;-70
2023/09/18 06:07:29;;;;;;;23.60;6.57;;;;;;;;;;4904677;29;20043;-70
2023/09/18 06:09:55;;;;;;;25.17;5.93;;;;;;;;;;4907452;29;20489;-71
2023/09/18 06:12:21;;;;;;;22.15;5.53;;;;;;;;;;4910114;29;20521;-70
2023/09/18 06:17:10;;;;;;;23.67;5.70;;;;;;;;;;5028738;28;20617;-73
2023/09/18 06:19:36;;;;;;;21.00;5.40;;;;;;;;;;5020284;28;20033;-73
2023/09/18 06:22:02;;;;;;;18.83;4.68;;;;;;;;;;5025057;28;20128;-74
2023/09/18 06:24:29;;;;;;;23.02;5.03;;;;;;;;;;5017545;28;20960;-73
2023/09/18 06:26:55;;;;;;;21.02;4.78;;;;;;;;;;5022674;28;20037;-73
2023/09/18 06:29:21;;;;;;;19.52;5.25;;;;;;;;;;5022256;28;20392;-73
2023/09/18 06:31:47;;;;;;;25.15;5.70;;;;;;;;;;5019926;28;20027;-73
2023/09/18 06:34:13;;;;;;;26.50;5.90;;;;;;;;;;5023727;28;20025;-73
2023/09/18 06:36:40;;;;;;;21.25;5.43;;;;;;;;;;5021868;28;20043;-73
2023/09/18 06:39:06;;;;;;;20.80;5.18;;;;;;;;;;5020092;28;20598;-73
2023/09/18 06:41:32;;;;;;;25.67;5.15;;;;;;;;;;5014483;28;20029;-73
2023/09/18 06:43:59;;;;;;;29.65;6.03;;;;;;;;;;5024047;28;20100;-73
2023/09/18 06:46:26;;;;;;;19.65;5.43;;;;;;;;;;5021811;28;20450;-72
2023/09/18 06:48:52;;;;;;;22.20;5.00;;;;;;;;;;5022269;28;20021;-73
2023/09/18 06:51:18;;;;;;;24.38;5.10;;;;;;;;;;5022380;28;20108;-73
2023/09/18 06:53:45;;;;;;;23.70;5.07;;;;;;;;;;5032565;28;20091;-72
2023/09/18 06:56:12;;;;;;;25.90;4.82;;;;;;;;;;5021922;28;20037;-73
2023/09/18 06:58:38;;;;;;;20.42;4.65;;;;;;;;;;5014431;28;20447;-73
2023/09/18 07:01:06;;;;;;;23.65;4.95;;;;;;;;;;5018987;28;20034;-72
2023/09/18 07:03:35;;;;;;;17.15;4.47;;;;;;;;;;5017605;28;20039;-73
2023/09/18 07:06:01;;;;;;;15.95;4.53;;;;;;;;;;5020332;28;20573;-73
2023/09/18 07:08:27;;;;;;;19.05;4.82;;;;;;;;;;5020166;28;20182;-72
2023/09/18 07:10:53;;;;;;;20.92;4.78;;;;;;;;;;5019755;28;20060;-72
2023/09/18 07:13:19;;;;;;;19.52;4.70;;;;;;;;;;5022099;28;20566;-74
2023/09/18 07:15:47;;;;;;;18.92;4.40;;;;;;;;;;5017287;28;21681;-72
2023/09/18 07:18:14;;;;;;;18.40;4.40;;;;;;;;;;5020091;28;20029;-72
2023/09/18 07:20:46;;;;;;;18.85;4.43;;;;;;;;;;5018749;28;20063;-72
2023/09/18 07:23:12;;;;;;;12.10;3.13;;;;;;;;;;5021202;28;20554;-72
2023/09/18 07:25:39;;;;;;;15.73;3.80;;;;;;;;;;5020045;28;20037;-73
2023/09/18 07:28:08;;;;;;;18.77;4.13;;;;;;;;;;5009123;28;20041;-72
2023/09/18 07:30:37;;;;;;;18.92;3.67;;;;;;;;;;5005935;28;20033;-74
2023/09/18 07:33:03;;;;;;;14.75;3.45;;;;;;;;;;5010783;28;20093;-72
2023/09/18 07:35:29;;;;;;;15.52;3.35;;;;;;;;;;5000129;28;20037;-72
2023/09/18 07:37:57;;;;;;;15.88;3.70;;;;;;;;;;5005765;28;20030;-73
2023/09/18 07:40:23;;;;;;;14.50;4.13;;;;;;;;;;5007879;28;20029;-72
2023/09/18 07:42:49;;;;;;;19.27;4.30;;;;;;;;;;5003438;28;20352;-72
2023/09/18 07:45:15;;;;;;;17.92;4.13;;;;;;;;;;5002991;28;20041;-72
2023/09/18 07:47:41;;;;;;;20.65;4.47;;;;;;;;;;5004547;28;20034;-73
2023/09/18 07:50:08;;;;;;;18.50;4.03;;;;;;;;;;5003498;28;20033;-72
2023/09/18 07:52:34;;;;;;;16.27;3.80;;;;;;;;;;5001302;28;20428;-73
2023/09/18 07:55:00;;;;;;;18.58;3.95;;;;;;;;;;5005454;28;20030;-73
2023/09/18 07:57:28;;;;;;;20.38;4.70;;;;;;;;;;4999057;28;20030;-72
2023/09/18 07:59:54;;;;;;;19.13;4.70;;;;;;;;;;5001985;28;20387;-72
2023/09/18 08:02:21;;;;;;;25.88;5.03;;;;;;;;;;5006048;28;20204;-72
2023/09/18 08:04:47;;;;;;;22.50;4.90;;;;;;;;;;4999841;28;20068;-72
2023/09/18 08:07:14;;;;;;;20.85;4.95;;;;;;;;;;5002045;28;20018;-72
2023/09/18 08:09:40;;;;;;;18.70;4.45;;;;;;;;;;5004521;28;20050;-72
2023/09/18 08:12:09;;;;;;;14.57;4.13;;;;;;;;;;5001741;28;20053;-73
2023/09/18 08:14:36;;;;;;;18.00;3.80;;;;;;;;;;4998184;28;20030;-72
2023/09/18 08:17:04;;;;;;;17.17;4.18;;;;;;;;;;5006466;28;20046;-73
2023/09/18 08:19:31;;;;;;;21.10;5.00;;;;;;;;;;5001107;28;20025;-72
2023/09/18 08:21:57;;;;;;;18.38;4.65;;;;;;;;;;5000613;28;20025;-72
2023/09/18 08:24:24;;;;;;;20.13;4.70;;;;;;;;;;5007078;28;20117;-73
2023/09/18 08:26:50;;;;;;;20.13;5.05;;;;;;;;;;5003276;28;20017;-71
2023/09/18 08:29:16;;;;;;;19.13;4.25;;;;;;;;;;5005017;28;20524;-70
2023/09/18 08:31:42;;;;;;;19.25;4.35;;;;;;;;;;4998795;28;20083;-71
2023/09/18 08:34:09;;;;;;;21.23;4.53;;;;;;;;;;5006038;28;20530;-71
2023/09/18 08:36:35;;;;;;;20.00;4.22;;;;;;;;;;5000646;28;20650;-72
2023/09/18 08:39:01;;;;;;;17.23;3.85;;;;;;;;;;5002859;28;20041;-73
2023/09/18 08:41:29;;;;;;;17.60;4.20;;;;;;;;;;5004983;28;20100;-72
2023/09/18 08:44:00;;;;;;;17.85;3.92;;;;;;;;;;5003299;28;20026;-71
2023/09/18 08:46:26;;;;;;;15.45;3.95;;;;;;;;;;5003270;28;20034;-71
2023/09/18 08:48:53;;;;;;;17.70;4.05;;;;;;;;;;5004498;28;20038;-71
2023/09/18 08:51:19;;;;;;;16.10;3.95;;;;;;;;;;5002235;28;20312;-73
2023/09/18 08:53:46;;;;;;;18.33;3.97;;;;;;;;;;4997663;28;21599;-72
2023/09/18 08:56:13;;;;;;;19.17;4.22;;;;;;;;;;5005694;28;20060;-74
2023/09/18 08:58:42;;;;;;;16.90;3.90;;;;;;;;;;4995161;28;20034;-74
2023/09/18 09:01:09;;;;;;;19.33;4.03;;;;;;;;;;4999576;28;20077;-74
2023/09/18 09:03:36;;;;;;;16.58;3.00;;;;;;;;;;4996100;28;20032;-72
2023/09/18 09:06:02;;;;;;;16.02;3.75;;;;;;;;;;4999312;28;20144;-74
2023/09/18 09:08:29;;;;;;;16.80;3.50;;;;;;;;;;5000265;28;20044;-74
2023/09/18 09:10:57;;;;;;;15.23;3.22;;;;;;;;;;4999599;28;20335;-74
2023/09/18 09:13:26;;;;;;;17.35;3.60;;;;;;;;;;5001842;28;20021;-71
2023/09/18 09:15:54;;;;;;;19.95;3.88;;;;;;;;;;5004059;28;20052;-72
2023/09/18 09:18:20;;;;;;;19.80;3.90;;;;;;;;;;5005594;28;20037;-74
2023/09/18 09:20:58;;;;;;;17.08;3.42;;;;;;;;;;4995500;28;21029;-72
2023/09/18 09:23:24;;;;;;;14.70;3.45;;;;;;;;;;5000589;28;20423;-72
2023/09/18 09:25:50;;;;;;;15.02;3.63;;;;;;;;;;4994017;28;20038;-72
2023/09/18 09:28:17;;;;;;;15.93;3.47;;;;;;;;;;4999698;28;20029;-72
2023/09/18 09:30:43;;;;;;;15.50;3.00;;;;;;;;;;4993055;28;20037;-72
2023/09/18 09:33:12;;;;;;;16.23;3.67;;;;;;;;;;4998963;28;20482;-71
2023/09/18 09:35:39;;;;;;;16.08;3.72;;;;;;;;;;4993737;28;20049;-72
2023/09/18 09:38:09;;;;;;;21.30;3.88;;;;;;;;;;4996560;28;20032;-73
2023/09/18 09:40:36;;;;;;;24.52;4.00;;;;;;;;;;5001059;28;20229;-72
2023/09/18 09:43:04;;;;;;;18.48;3.78;;;;;;;;;;5001753;28;20044;-72
2023/09/18 09:45:35;;;;;;;20.17;4.20;;;;;;;;;;4996158;28;20111;-72
2023/09/18 09:48:04;;;;;;;13.70;3.40;;;;;;;;;;4997777;28;20060;-72
2023/09/18 09:50:32;;;;;;;18.30;4.10;;;;;;;;;;4997990;28;20356;-74
2023/09/18 09:52:58;;;;;;;18.90;4.03;;;;;;;;;;5002720;28;20025;-74
2023/09/18 09:55:29;;;;;;;18.08;4.13;;;;;;;;;;4998842;28;20029;-71
2023/09/18 09:57:57;;;;;;;17.48;3.92;;;;;;;;;;4998744;28;20029;-72
2023/09/18 10:00:42;;;;;;;18.40;3.25;;;;;;;;;;4999981;28;20021;-72
2023/09/18 10:03:09;;;;;;;14.38;3.75;;;;;;;;;;5002044;28;20140;-71
2023/09/18 10:05:36;;;;;;;12.85;2.97;;;;;;;;;;4998367;28;20029;-72
2023/09/18 10:08:04;;;;;;;15.70;3.80;;;;;;;;;;5001897;28;20204;-72
2023/09/18 10:10:35;;;;;;;14.98;3.10;;;;;;;;;;4997596;28;20223;-72
2023/09/18 10:13:08;;;;;;;16.60;3.40;;;;;;;;;;4997404;28;20104;-72
2023/09/18 10:15:38;;;;;;;19.05;3.70;;;;;;;;;;4996838;28;20772;-72
2023/09/18 10:18:07;;;;;;;17.38;3.60;;;;;;;;;;4996872;28;20193;-72
2023/09/18 10:20:37;;;;;;;15.30;3.53;;;;;;;;;;4995235;28;20432;-72
2023/09/18 10:23:05;;;;;;;15.77;3.67;;;;;;;;;;5001150;28;20434;-72
2023/09/18 10:25:32;;;;;;;16.50;3.25;;;;;;;;;;4996676;28;20114;-73
2023/09/18 10:28:01;;;;;;;22.00;4.05;;;;;;;;;;5001595;28;20702;-73
2023/09/18 10:30:28;;;;;;;16.45;3.38;;;;;;;;;;4997779;28;20029;-73
2023/09/18 10:32:54;;;;;;;15.98;3.55;;;;;;;;;;4998780;28;20457;-73
2023/09/18 10:35:21;;;;;;;18.25;4.20;;;;;;;;;;5000514;28;20108;-72
2023/09/18 10:37:51;;;;;;;16.77;3.33;;;;;;;;;;4999884;28;20080;-72
2023/09/18 10:40:17;;;;;;;14.40;3.70;;;;;;;;;;4998936;28;20894;-73
2023/09/18 10:42:46;;;;;;;13.88;3.70;;;;;;;;;;4998969;28;20044;-73
2023/09/18 10:45:12;;;;;;;19.48;3.72;;;;;;;;;;4997545;28;20185;-72
2023/09/18 10:47:46;;;;;;;15.65;3.17;;;;;;;;;;4997058;28;20115;-74
2023/09/18 10:50:12;;;;;;;16.67;3.08;;;;;;;;;;4999035;28;20025;-73
2023/09/18 10:52:45;;;;;;;15.57;3.25;;;;;;;;;;4997272;28;20033;-75
2023/09/18 10:55:14;;;;;;;18.42;3.60;;;;;;;;;;4999031;28;20073;-74
2023/09/18 10:57:53;;;;;;;15.70;3.33;;;;;;;;;;4998781;28;20534;-74
2023/09/18 11:00:22;;;;;;;17.00;3.50;;;;;;;;;;5000963;28;20476;-73
2023/09/18 11:02:50;;;;;;;18.60;3.35;;;;;;;;;;4996661;28;20022;-74
2023/09/18 11:05:26;;;;;;;12.68;2.97;;;;;;;;;;5004310;28;20504;-74
2023/09/18 11:08:12;;;;;;;16.08;3.60;;;;;;;;;;5003981;28;20124;-74
2023/09/18 11:10:55;;;;;;;16.73;3.50;;;;;;;;;;4999578;28;20060;-74
2023/09/18 11:13:40;;;;;;;21.33;3.40;;;;;;;;;;4998902;28;20464;-74
2023/09/18 11:16:39;;;;;;;18.80;3.03;;;;;;;;;;5003277;28;20551;-73
2023/09/18 11:19:08;;;;;;;17.25;3.30;;;;;;;;;;5005002;28;20827;-73
2023/09/18 11:21:35;;;;;;;15.93;3.53;;;;;;;;;;4997646;28;20117;-73
2023/09/18 11:24:05;;;;;;;15.68;3.13;;;;;;;;;;5005386;28;20356;-73
2023/09/18 11:26:38;;;;;;;14.63;3.30;;;;;;;;;;5000546;28;20036;-72
2023/09/18 11:29:05;;;;;;;20.73;3.55;;;;;;;;;;4996084;28;20038;-72
2023/09/18 11:31:45;;;;;;;14.23;3.38;;;;;;;;;;5001526;28;20040;-73
2023/09/18 11:34:20;;;;;;;18.10;3.45;;;;;;;;;;4999448;28;20029;-73
2023/09/18 11:36:46;;;;;;;14.93;3.17;;;;;;;;;;5001120;28;20998;-75
2023/09/18 11:39:13;;;;;;;14.43;3.72;;;;;;;;;;5004075;28;20030;-74
2023/09/18 11:41:39;;;;;;;15.90;3.30;;;;;;;;;;5000485;28;20026;-74
2023/09/18 11:44:18;;;;;;;15.10;3.47;;;;;;;;;;5004226;28;20795;-75
2023/09/18 11:46:52;;;;;;;19.73;3.75;;;;;;;;;;5000188;28;20108;-74
2023/09/18 11:49:27;;;;;;;17.92;3.33;;;;;;;;;;5006905;28;20041;-74
2023/09/18 11:51:53;;;;;;;;;;;;;;;;;;5003676;28;20064;-75
2023/09/18 11:54:20;;;;;;;15.40;3.17;;;;;;;;;;5007326;28;20036;-75
2023/09/18 11:56:47;;;;;;;13.52;3.55;;;;;;;;;;5003920;28;20048;-75
2023/09/18 11:59:13;;;;;;;16.13;3.40;;;;;;;;;;5005765;28;20037;-75
2023/09/18 12:01:40;;;;;;;16.58;3.65;;;;;;;;;;5001195;28;20083;-75
2023/09/18 12:04:09;;;;;;;14.75;3.60;;;;;;;;;;5005864;28;20117;-75
2023/09/18 12:06:39;;;;;;;14.30;3.70;;;;;;;;;;5000138;28;20207;-75
2023/09/18 12:09:06;;;;;;;12.30;3.63;;;;;;;;;;5006839;28;20041;-76
2023/09/18 12:11:41;;;;;;;16.60;3.80;;;;;;;;;;5002453;28;20032;-75
2023/09/18 12:14:07;;;;;;;;;;;;;;;;;;5002984;28;20053;-75
2023/09/18 12:16:39;;;;;;;14.40;3.30;;;;;;;;;;5000818;28;20023;-74
2023/09/18 12:19:09;;;;;;;13.63;3.30;;;;;;;;;;5004245;28;20387;-76
2023/09/18 12:21:41;;;;;;;13.27;3.47;;;;;;;;;;5003949;28;20519;-76
2023/09/18 12:24:07;;;;;;;12.10;3.22;;;;;;;;;;5009792;28;20122;-75
2023/09/18 12:26:33;;;;;;;12.73;3.58;;;;;;;;;;5004476;28;20040;-75
2023/09/18 12:28:59;;;;;;;16.02;3.67;;;;;;;;;;5005850;28;20037;-75
2023/09/18 12:31:26;;;;;;;15.35;4.20;;;;;;;;;;5008103;28;20214;-75
2023/09/18 12:33:52;;;;;;;15.93;4.10;;;;;;;;;;5005151;28;20116;-74
2023/09/18 12:36:22;;;;;;;13.38;3.85;;;;;;;;;;5004151;28;20112;-75
2023/09/18 12:39:00;;;;;;;14.93;3.95;;;;;;;;;;5006333;28;20031;-75
2023/09/18 12:41:26;;;;;;;15.18;3.78;;;;;;;;;;5002573;28;20036;-74
2023/09/18 12:43:54;;;;;;;16.42;3.95;;;;;;;;;;5007128;28;20563;-75
2023/09/18 12:46:21;;;;;;;16.65;3.95;;;;;;;;;;5006153;28;20038;-74
2023/09/18 12:48:48;;;;;;;12.73;3.40;;;;;;;;;;5002191;28;20036;-74
2023/09/18 12:51:16;;;;;;;11.98;3.75;;;;;;;;;;5000696;28;20086;-74
2023/09/18 12:53:42;;;;;;;13.90;3.65;;;;;;;;;;5001079;28;20037;-74
2023/09/18 12:56:14;;;;;;;14.32;3.30;;;;;;;;;;5002670;28;20036;-74
2023/09/18 12:58:42;;;;;;;13.70;2.97;;;;;;;;;;4997723;28;20447;-76
2023/09/18 13:01:09;;;;;;;11.98;2.90;;;;;;;;;;5004570;28;20463;-74
2023/09/18 13:03:46;;;;;;;13.93;3.13;;;;;;;;;;5000204;28;20068;-75
2023/09/18 13:06:13;;;;;;;13.40;2.95;;;;;;;;;;5007985;28;20053;-75
2023/09/18 13:08:39;;;;;;;15.35;3.15;;;;;;;;;;5002434;28;20034;-75
2023/09/18 13:11:06;;;;;;;13.60;3.10;;;;;;;;;;5003985;28;20079;-75
2023/09/18 13:13:32;;;;;;;14.63;2.83;;;;;;;;;;5004316;28;20172;-75
2023/09/18 13:16:00;;;;;;;13.95;2.95;;;;;;;;;;5002148;28;20834;-74
2023/09/18 13:18:27;;;;;;;13.95;3.40;;;;;;;;;;5005784;28;20068;-75
2023/09/18 13:20:54;;;;;;;14.13;3.30;;;;;;;;;;5004920;28;20108;-75
2023/09/18 13:23:20;;;;;;;16.77;3.50;;;;;;;;;;5007846;28;20351;-75
2023/09/18 13:25:47;;;;;;;16.88;3.25;;;;;;;;;;5002410;28;20037;-75
2023/09/18 13:28:14;;;;;;;16.38;3.63;;;;;;;;;;5003536;28;20037;-75
2023/09/18 13:30:41;;;;;;;16.10;3.25;;;;;;;;;;5000565;28;20898;-75
2023/09/18 13:33:11;;;;;;;11.23;3.28;;;;;;;;;;5007557;28;20040;-75
2023/09/18 13:35:39;;;;;;;14.90;3.70;;;;;;;;;;5001527;28;20034;-74
2023/09/18 13:38:05;;;;;;;15.02;3.42;;;;;;;;;;5006984;28;20041;-75
2023/09/18 13:40:38;;;;;;;18.65;3.95;;;;;;;;;;5006684;28;20021;-76
2023/09/18 13:43:05;;;;;;;13.80;3.38;;;;;;;;;;5005530;28;20033;-75
2023/09/18 13:45:32;;;;;;;15.75;3.20;;;;;;;;;;4999824;28;20796;-75
2023/09/18 13:47:58;;;;;;;15.63;3.28;;;;;;;;;;5000611;28;20123;-75
2023/09/18 13:50:25;;;;;;;13.48;3.42;;;;;;;;;;5007886;28;20545;-75
2023/09/18 13:52:51;;;;;;;11.60;2.92;;;;;;;;;;4998824;28;20160;-75
2023/09/18 13:55:17;;;;;;;12.32;3.30;;;;;;;;;;5007837;28;20036;-76
2023/09/18 13:57:43;;;;;;;13.30;3.08;;;;;;;;;;4999175;28;20033;-74
2023/09/18 14:00:11;;;;;;;11.82;3.20;;;;;;;;;;5004362;28;20037;-75
2023/09/18 14:02:38;;;;;;;16.92;3.28;;;;;;;;;;4999805;28;20037;-75
2023/09/18 14:05:05;;;;;;;15.90;3.42;;;;;;;;;;5003067;28;20878;-76
2023/09/18 14:07:31;;;;;;;13.98;3.22;;;;;;;;;;5003092;28;20029;-75
2023/09/18 14:09:58;;;;;;;11.48;2.88;;;;;;;;;;5009017;28;20053;-75
2023/09/18 14:12:24;;;;;;;16.38;3.50;;;;;;;;;;4999035;28;20351;-76
2023/09/18 14:14:51;;;;;;;14.02;3.50;;;;;;;;;;5000346;28;20567;-74
2023/09/18 14:17:21;;;;;;;16.75;3.47;;;;;;;;;;5000461;28;20108;-75
2023/09/18 14:19:47;;;;;;;15.63;3.20;;;;;;;;;;5000433;28;20246;-74
2023/09/18 14:22:13;;;;;;;13.75;3.20;;;;;;;;;;5007267;28;20506;-75
2023/09/18 14:24:40;;;;;;;17.73;3.78;;;;;;;;;;4997780;28;20132;-75
2023/09/18 14:27:07;;;;;;;14.13;3.40;;;;;;;;;;5004335;28;20030;-76
2023/09/18 14:29:34;;;;;;;11.98;3.33;;;;;;;;;;4998729;28;20050;-74
2023/09/18 14:32:00;;;;;;;17.23;3.80;;;;;;;;;;5006508;28;20125;-74
2023/09/18 14:34:27;;;;;;;14.73;3.20;;;;;;;;;;5004165;28;20045;-73